Gingelom, Belgium
Current Conditions -  °F | °C
As of 12:25 PM on Tuesday 27 Jan 2015 (Local Time) from EBBE Reporting Station
Broken Clouds Broken Clouds  
Wind Chill: 33°   Ceiling: 2000
Heat Index: 39°   Visibility: 6mi
Dew Point: 37°   Wind: 9mph
Humidity: 93%   Direction: 260°W
Pressure: 30.27"   Gusts: NA
Location:  50.75°N, 5.13°E
Report Text: EBBE 271125Z 26008KT 9999 SCT011 BKN020 04/03 Q1025 GRN GRN BECMG WHT
Loading
Personal Weather Stations






























Interactive Weather Map New forecast layout! Learn more

10-Day Weather Forecast

Advertisements
Track Severe Weather on mobile